KAKO/AKO METAR and TAF weather

Enter ICAO airport designator
Station Type Date Time Source
KAKO METAR 2022/06/28 14:53 UTC NOAA

KAKO 281453Z AUTO 19008KT 10SM CLR 26/08 A3027 RMK AO2 SLP187 T02560078 58001


Station Type Date Time Source
KAKO Decoded METAR 2022/06/28 14:53 UTC NOAA

COLORADO PLAINS REGIONAL, CO, United States (KAKO) 40-10N 103-13W 1421M
Jun 28, 2022 - 10:53 AM EDT / 2022.06.28 1453 UTC
Wind: from the S (190 degrees) at 9 MPH (8 KT):0
Visibility: 10 mile(s):0
Sky conditions: clear
Temperature: 78.1 F (25.6 C)
Dew Point: 46.0 F (7.8 C)
Relative Humidity: 32%
Pressure (altimeter): 30.27 in. Hg (1025 hPa)
Pressure tendency: 0.00 inches (0.1 hPa) lower than three hours ago
ob: KAKO 281453Z AUTO 19008KT 10SM CLR 26/08 A3027 RMK AO2 SLP187 T02560078 58001
cycle: 15

Station Type Date Time Source
KAKO TAF UTC NOAA

Error!

Example: see airport list